Terminal Aerodrome Forecast
Issued by NWS

Current Version | Previous Version | Text Only | Print | Product List | Glossary Off
Versions: 1 2 3 4 5 6 7 8 9 10 11 12 13 14 15 16 17

537
FTUS42 KMHX 261736
TAFISO
TAF
KISO 261736Z 2618/2718 03007KT P6SM SCT040
     FM270600 00000KT 5SM BR SCT008
     FM270800 00000KT 1SM BR OVC004
     FM271300 00000KT 5SM BR BKN012
     FM271500 VRB03KT P6SM SCT012
      AMD LTD TO CLD VIS AND WIND=

USA.gov is the U.S. government's official web portal to all federal, state and local government web resources and services.